• Join FlightAware (Why Join?)
  • Login
  • US Flag 
03:57AM EST


 

Airport Tracker/Info


-or-


 

Live Flight TrackerFlight Track Log ✈ FLG3729 ✈ 20-Jun-2013 ✈ KALB - KDTW

Flight Track Log - Related Links

Times and Time Zones

All times are in EDT time to prevent confusion due to time zone crossing. See the FLG3729 flight status page for this flight to view local times or setup timezone preferences in your user account.

Time Position Orientation Groundspeed Altitude Reporting Facility
EDT Latitude Longitude Course Direction KTS MPH feet Rate Location/Type
05:54AM 42.7675 -73.8033 283° West 157 181 1,300  Level Boston Center
05:55AM 42.8131 -73.8269 339° North 201 231 2,900 2,340 Climbing Boston Center
05:57AM 42.9056 -73.9283 321° Northwest 262 302 7,600 2,520 Climbing Boston Center
05:58AM 42.9189 -74.0136 282° West 251 289 10,000 2,220 Climbing Boston Center
05:59AM 42.9339 -74.1331 280° West 282 325 12,100 1,860 Climbing Boston Center
06:00AM 42.8656 -74.5270 283° West  Level FlightAware Approximate
06:00AM 42.9525 -74.2811 280° West 324 373 14,100  Level Boston Center
06:01AM 42.9669 -74.4064 279° West 338 389 15,400 1,380 Climbing Boston Center
06:02AM 42.9811 -74.5431 278° West 363 418 16,900 1,200 Climbing Boston Center
06:03AM 42.9975 -74.6772 280° West 369 425 17,900 1,200 Climbing Boston Center
06:04AM 43.0114 -74.8056 278° West 369 425 19,300 1,260 Climbing Boston Center
06:05AM 43.0275 -74.9394 279° West 369 425 20,500 1,080 Climbing Boston Center
06:06AM 43.0411 -75.0764 278° West 369 425 21,500 1,020 Climbing Boston Center
06:07AM 43.0564 -75.2192 278° West 369 425 22,600 1,080 Climbing Boston Center
06:08AM 43.0717 -75.3592 279° West 369 425 23,700 1,140 Climbing Boston Center
06:09AM 43.0867 -75.4964 279° West 369 425 24,900 1,020 Climbing Boston Center
06:10AM 43.0997 -75.6308 278° West 369 425 25,800 720 Climbing Boston Center
06:11AM 43.1144 -75.7708 278° West 369 425 26,400 540 Climbing Boston Center
06:12AM 43.1297 -75.8914 280° West 369 425 26,900 600 Climbing Boston Center
06:13AM 43.1472 -76.0631 278° West 375 432 27,700 300 Climbing Boston Center
06:15AM 43.1447 -76.3858 270° West 394 453 28,000 60 Climbing Cleveland Center
06:16AM 43.1317 -76.5433 264° West 413 475 28,000  Level Cleveland Center
06:17AM 43.1183 -76.6978 263° West 413 475 28,000  Level Cleveland Center
06:18AM 43.1044 -76.8464 263° West 408 470 28,000  Level Cleveland Center
06:19AM 43.0906 -77.0008 263° West 408 470 28,000  Level Cleveland Center
06:20AM 43.0783 -77.1522 264° West 408 470 28,000  Level Cleveland Center
06:21AM 43.0619 -77.3067 262° West 408 470 28,000  Level Cleveland Center
06:22AM 43.0475 -77.4581 263° West 408 470 28,000  Level Cleveland Center
06:23AM 43.0347 -77.6092 263° West 408 470 28,000  Level Cleveland Center
06:24AM 43.0197 -77.7606 262° West 408 470 28,000  Level Cleveland Center
06:25AM 43.0047 -77.9144 262° West 408 470 28,000  Level Cleveland Center
06:26AM 42.9892 -78.0656 262° West 408 470 28,000  Level Cleveland Center
06:27AM 42.9719 -78.2308 262° West 408 470 28,000  Level Cleveland Center
06:28AM 42.9561 -78.3819 262° West 408 470 28,000  Level Cleveland Center
06:29AM 42.9422 -78.5328 263° West 408 470 28,000  Level Cleveland Center
06:30AM 42.9261 -78.6806 262° West 408 470 28,000  Level Cleveland Center
06:31AM 42.9033 -78.8344 259° West 408 470 28,000  Level Cleveland Center
06:32AM 42.8806 -78.9853 258° West 413 475 28,000  Level Cleveland Center
06:33AM 42.8597 -79.1358 259° West 413 475 28,000  Level Cleveland Center
06:34AM 42.8386 -79.2892 259° West 413 475 28,000  Level Cleveland Center
06:35AM 42.8153 -79.4425 258° West 413 475 28,000  Level Cleveland Center
06:36AM 42.7917 -79.5986 258° West 413 475 28,000  Level Cleveland Center
06:37AM 42.7678 -79.7544 258° West 413 475 28,000  Level Cleveland Center
06:38AM 42.7500 -79.9103 261° West 413 475 28,000  Level Cleveland Center
06:39AM 42.7425 -80.0714 266° West 419 482 28,000  Level Cleveland Center
06:40AM 42.7389 -80.2158 268° West 427 491 28,000  Level Cleveland Center
06:41AM 42.7308 -80.3683 266° West 422 486 28,000  Level Cleveland Center
06:42AM 42.7228 -80.5267 266° West 422 486 28,000  Level Cleveland Center
06:43AM 42.7164 -80.6850 267° West 422 486 28,000  Level Cleveland Center
06:44AM 42.7100 -80.8403 267° West 422 486 28,000  Level Cleveland Center
06:45AM 42.6950 -80.9983 263° West 422 486 28,000  Level Cleveland Center
06:46AM 42.6775 -81.1564 261° West 422 486 28,000 -780 Level Cleveland Center
06:47AM 42.6558 -81.3172 260° West 427 491 26,500 -1,560 Descending Cleveland Center
06:48AM 42.6358 -81.4947 261° West 435 501 24,900 -1,800 Descending Cleveland Center
06:49AM 42.6178 -81.6581 262° West 435 501 22,900 -2,040 Descending Cleveland Center
06:50AM 42.5997 -81.7961 260° West 425 489 20,900 -2,040 Descending Cleveland Center
06:51AM 42.5814 -81.9481 261° West 420 483 18,900 -1,860 Descending Cleveland Center
06:52AM 42.5650 -82.0914 261° West 408 470 17,200 -1,860 Descending Cleveland Center
06:53AM 42.5464 -82.2347 260° West 403 464 15,200 -2,100 Descending Cleveland Center
06:54AM 42.5317 -82.3694 262° West 376 433 13,400 -1,680 Descending Cleveland Center
06:55AM 42.5131 -82.5042 259° West 370 426 12,100 -1,020 Descending Cleveland Center
06:56AM 42.4750 -82.6439 250° West 326 375 11,300 -1,080 Descending Cleveland Center
06:57AM 42.4400 -82.7356 243° Southwest 333 383 9,900 -1,440 Descending Cleveland Center
06:58AM 42.4153 -82.8275 250° West 296 341 8,400 -1,620 Descending Cleveland Center
06:59AM 42.3967 -82.9281 256° West 266 306 6,900 -1,320 Descending Cleveland Center
07:00AM 42.3758 -83.0228 253° West 271 312 6,000 -840 Descending Cleveland Center
07:01AM 42.3572 -83.1122 254° West 267 307 5,200 -1,380 Descending Cleveland Center
07:02AM 42.3389 -83.1956 253° West 250 288 3,200 -1,320 Descending Cleveland Center
07:03AM 42.3164 -83.2650 246° West 229 264 2,600 -600 Descending Cleveland Center